Terminal Aerodrome Forecast
Issued by NWS

Home | Current Version | Previous Version | Text Only | Print | Product List | Glossary On
Versions: 1 2 3 4 5 6 7 8 9 10 11 12 13 14 15 16 17 18 19 20
302
FTUS43 KILX 011736
TAFDEC
TAF
KDEC 011736Z 0118/0218 29023G33KT P6SM OVC015
      TEMPO 0118/0121 OVC025
     FM012100 28018G28KT P6SM BKN030
     FM020200 30011KT P6SM BKN050
     FM020700 30009KT P6SM SCT070
     FM021300 28009KT P6SM SCT090=

USA.gov is the U.S. government's official web portal to all federal, state and local government web resources and services.